Date,TemperatureHighF,TemperatureAvgF,TemperatureLowF,DewpointHighF,DewpointAvgF,DewpointLowF,HumidityHigh,HumidityAvg,HumidityLow,PressureMaxIn,PressureMinIn,WindSpeedMaxMPH,WindSpeedAvgMPH,GustSpeedMaxMPH,PrecipitationSumIn
2013-1-1,24,20,9,20,14,5,89,79,69,30.26,30.11,6,2,10,0.01
2013-1-2,24,14,4,15,8,1,89,78,62,30.30,30.20,7,3,14,0.01
2013-1-3,31,24,17,27,19,11,88,82,74,30.34,30.19,8,3,14,0.00
2013-1-4,32,21,11,25,17,7,88,83,75,30.35,30.28,7,4,14,0.01
2013-1-5,35,28,18,31,25,15,94,87,78,30.31,30.05,10,4,18,0.04
2013-1-6,35,28,16,32,24,14,93,84,77,30.39,29.98,8,4,16,0.02
2013-1-7,36,25,12,28,21,10,94,84,70,30.42,30.18,12,5,20,0.00
2013-1-8,42,34,25,34,28,22,90,81,68,30.23,30.11,11,5,18,0.00
2013-1-9,50,40,29,39,32,25,87,74,43,30.53,30.11,11,3,18,0.00
2013-1-10,46,35,27,44,31,23,97,85,69,30.53,29.90,8,4,16,0.35
2013-1-11,55,52,46,53,49,45,97,91,83,29.91,29.73,14,7,24,0.42
2013-1-12,56,46,32,51,42,30,93,86,73,29.95,29.79,11,5,21,0.43
2013-1-13,32,25,15,31,23,10,95,90,80,30.31,29.86,8,4,17,0.43
2013-1-14,24,17,14,18,13,10,92,83,73,30.51,30.31,5,2,13,0.01
2013-1-15,30,21,13,23,17,11,92,86,72,30.47,30.16,3,0,9,0.00
2013-1-16,37,28,18,29,23,16,93,82,59,30.16,29.94,7,2,14,0.01
2013-1-17,35,29,20,30,22,15,90,74,54,30.45,30.08,10,4,16,0.01
2013-1-18,40,30,19,30,23,16,90,77,61,30.49,30.05,17,8,29,0.00
2013-1-19,50,41,35,39,33,26,83,74,58,30.05,29.81,13,7,24,0.00
2013-1-20,36,21,16,26,11,7,72,64,56,30.32,29.97,13,5,27,0.00
2013-1-21,17,12,5,11,3,-4,84,68,49,30.36,30.21,11,4,24,0.00
2013-1-22,15,8,2,2,-1,-3,82,66,46,30.47,30.35,5,3,13,0.00
2013-1-23,25,18,12,16,8,2,83,64,52,30.41,30.15,8,2,15,0.00
2013-1-24,24,17,7,11,5,0,75,60,40,30.66,30.32,7,4,16,0.00
2013-1-25,33,24,19,22,16,8,87,71,56,30.40,30.03,8,3,14,0.00
2013-1-26,32,23,14,19,13,9,82,67,41,30.43,30.18,5,2,9,0.00
2013-1-27,40,30,22,39,25,17,96,81,65,30.42,29.98,13,5,19,0.23
2013-1-28,55,47,40,53,46,39,98,96,94,30.00,29.85,12,4,22,0.08
2013-1-29,60,57,52,58,55,51,98,94,88,29.85,29.39,14,9,26,0.95
2013-1-30,52,41,22,51,38,17,98,92,81,29.66,29.24,9,4,22,1.02
2013-1-31,21,15,6,16,9,0,82,75,71,30.24,29.85,10,6,20,0.00
2013-2-1,21,12,3,14,4,-2,80,72,61,30.45,30.24,7,4,17,0.00
2013-2-2,27,20,11,24,17,6,91,85,74,30.25,30.03,8,4,16,0.00
2013-2-3,25,19,9,20,15,5,93,83,69,30.12,30.01,9,2,21,0.00
2013-2-4,36,28,22,29,24,18,91,83,73,30.09,29.83,9,3,13,0.02
2013-2-5,35,29,23,31,26,21,93,88,82,30.11,29.84,8,3,20,0.01
2013-2-6,40,33,28,31,28,25,89,80,66,30.28,30.11,8,2,13,0.00
2013-2-7,48,37,31,41,34,28,96,87,69,30.14,29.84,9,3,15,0.31
2013-2-8,33,30,27,31,27,24,94,89,84,30.41,29.92,9,6,20,0.23
2013-2-9,38,32,29,31,26,23,89,80,72,30.41,30.11,7,3,13,0.00
2013-2-10,50,41,34,48,38,28,95,89,78,30.12,29.59,17,8,27,0.22
2013-2-11,48,36,31,44,28,24,86,75,68,30.08,29.61,9,5,24,0.05
2013-2-12,32,29,24,26,25,22,93,83,77,30.14,29.96,6,2,16,0.00
2013-2-13,47,34,24,35,29,22,95,83,60,29.97,29.76,8,2,15,0.00
2013-2-14,40,37,33,35,32,29,88,82,72,30.00,29.73,8,4,21,0.00
2013-2-15,33,30,23,30,23,15,91,74,50,30.20,30.00,8,4,16,0.00
2013-2-16,24,20,14,17,11,6,80,68,54,30.22,30.15,9,5,17,0.00
2013-2-17,33,22,9,21,11,4,82,64,40,30.27,30.07,7,2,13,0.00
2013-2-18,52,40,29,45,34,19,94,77,67,30.07,29.48,17,10,29,0.25
2013-2-19,31,20,14,29,14,7,91,79,74,30.24,29.64,10,6,23,0.24
2013-2-20,26,17,8,18,11,3,84,76,67,30.39,30.23,8,4,16,0.00
2013-2-21,28,25,19,24,20,15,92,83,77,30.40,29.96,14,4,24,0.00
2013-2-22,34,30,26,33,28,23,97,91,81,29.99,29.84,12,4,21,0.11
2013-2-23,28,26,22,24,21,18,87,82,72,30.02,29.97,6,2,10,0.02
2013-2-24,38,27,17,28,22,14,91,81,65,30.17,30.01,3,0,5,0.01
2013-2-25,43,34,24,33,28,22,92,80,65,30.18,29.90,7,2,13,0.01
2013-2-26,35,33,33,32,30,27,96,89,74,29.92,29.45,11,5,22,0.71
2013-2-27,33,32,31,32,31,30,97,95,92,29.72,29.50,5,1,13,0.22
2013-2-28,36,33,31,32,30,27,94,89,84,30.06,29.72,9,3,16,0.16
2013-3-1,32,29,27,29,26,23,93,88,82,30.17,30.04,9,6,16,0.01
2013-3-2,30,27,20,25,23,16,92,83,74,30.20,30.14,8,5,14,0.01
2013-3-3,34,24,15,23,17,12,90,75,52,30.19,30.11,5,2,10,0.01
2013-3-4,35,29,23,30,24,19,91,82,71,30.15,29.96,8,4,13,0.00
2013-3-5,34,32,28,32,30,27,96,93,86,29.97,29.76,7,2,11,0.16
2013-3-6,31,29,28,29,27,25,96,91,86,30.33,29.93,9,3,15,0.11
2013-3-7,37,31,24,29,26,21,91,82,65,30.44,30.32,4,1,7,0.19
2013-3-8,39,30,19,31,25,17,95,82,66,30.51,30.32,5,2,9,0.03
2013-3-9,42,37,31,37,32,26,85,82,78,30.33,29.86,8,4,14,0.00
2013-3-10,60,50,40,50,44,35,92,80,64,29.87,29.65,12,5,22,0.04
2013-3-11,52,40,33,50,38,29,95,92,87,29.86,29.59,8,4,15,0.07
2013-3-12,40,33,29,32,27,21,92,80,65,30.07,29.86,9,4,20,0.01
2013-3-13,34,29,25,23,21,17,85,72,52,30.37,30.07,10,5,20,0.00
2013-3-14,37,30,23,31,26,20,94,84,62,30.37,30.13,6,2,11,0.05
2013-3-15,51,39,29,43,35,27,94,87,74,30.13,29.71,8,2,15,0.02
2013-3-16,43,36,32,39,33,26,97,88,77,30.11,29.64,11,5,19,0.01
2013-3-17,37,33,30,28,26,23,84,77,68,30.19,29.98,7,4,17,0.00
2013-3-18,38,32,26,35,29,18,96,88,72,29.98,29.65,9,4,23,0.04
2013-3-19,39,28,20,21,18,13,78,64,45,30.14,29.89,9,5,25,0.01
2013-3-20,30,24,18,21,13,9,78,64,47,30.14,30.06,11,6,23,0.00
2013-3-21,35,25,15,18,14,9,82,64,44,30.10,30.03,7,3,16,0.00
2013-3-22,44,31,18,24,19,15,91,65,37,30.10,30.02,4,1,10,0.00
2013-3-23,47,36,28,28,24,20,81,62,41,30.12,29.98,7,2,12,0.00
2013-3-24,36,31,30,30,28,24,96,86,68,29.99,29.58,11,6,18,0.00
2013-3-25,35,31,28,32,29,27,96,91,80,30.09,29.66,11,6,17,0.31
2013-3-26,39,34,30,30,28,24,88,78,56,30.29,30.09,7,3,13,0.11
2013-3-27,41,36,30,29,27,21,87,71,46,30.35,30.28,5,2,13,0.01
2013-3-28,49,37,25,33,28,22,91,72,50,30.39,30.30,7,1,12,0.00
2013-3-29,55,42,32,37,33,28,92,71,46,30.34,30.22,3,1,8,0.00
2013-3-30,56,45,31,41,34,-100,85,70,51,30.24,29.88,8,3,15,0.00
2013-3-31,62,50,40,45,40,31,95,72,44,29.88,29.73,9,4,20,0.01
2013-4-1,43,36,29,31,22,16,79,57,35,30.20,29.88,10,5,19,0.01
2013-4-2,46,34,23,23,18,14,82,55,28,30.32,30.20,9,3,21,0.00
2013-4-3,50,36,23,25,21,17,85,57,31,30.47,30.31,5,1,11,0.00
2013-4-4,59,43,27,28,24,21,82,51,25,30.35,30.00,6,1,11,0.00
2013-4-5,55,44,34,35,27,17,89,56,23,30.18,30.00,9,4,13,0.00
2013-4-6,71,54,34,44,34,26,73,50,32,30.14,29.67,18,9,32,0.05
2013-4-7,68,57,46,48,44,40,88,64,38,29.93,29.70,9,3,18,0.07
2013-4-8,75,62,48,60,52,39,90,71,45,29.94,29.69,16,5,26,0.06
2013-4-9,76,64,49,63,56,44,92,77,58,29.94,29.80,14,5,24,0.03
2013-4-10,54,47,42,51,44,40,96,92,86,29.89,29.69,9,4,19,0.87
2013-4-11,60,49,41,59,47,36,98,94,82,29.81,29.58,9,3,19,0.91
2013-4-12,44,40,37,38,35,33,89,83,76,29.91,29.62,7,3,19,0.01
2013-4-13,50,42,36,39,34,28,90,75,56,30.00,29.91,7,3,21,0.09
2013-4-14,73,56,42,53,44,38,88,68,40,30.00,29.70,13,5,22,0.01
2013-4-15,64,57,48,58,52,46,95,83,58,29.97,29.72,13,7,22,0.20
2013-4-16,54,48,43,47,44,39,96,84,71,30.23,29.91,7,3,11,0.95
2013-4-17,63,50,44,60,46,38,97,85,74,30.23,29.77,14,5,21,0.42
2013-4-18,70,60,44,65,58,38,97,93,84,29.77,29.49,13,6,31,1.17
2013-4-19,43,38,36,38,33,30,84,80,73,29.97,29.55,8,4,20,0.42
2013-4-20,47,38,32,32,29,27,87,71,49,30.42,29.97,7,3,13,0.01
2013-4-21,54,43,32,38,31,25,80,64,47,30.53,30.35,8,4,19,0.00
2013-4-22,67,52,37,44,38,31,82,61,35,30.35,30.06,7,2,14,0.00
2013-4-23,61,53,40,54,47,38,96,82,66,30.06,29.83,11,4,19,0.61
2013-4-24,50,42,37,39,36,33,95,81,53,30.19,29.90,8,4,15,0.53
2013-4-25,53,44,37,37,32,25,84,64,39,30.34,30.14,9,4,18,0.02
2013-4-26,65,51,36,48,40,31,86,69,50,30.39,30.29,9,3,18,0.00
2013-4-27,67,54,42,52,45,40,94,74,41,30.31,29.98,8,2,16,0.09
2013-4-28,61,56,53,56,54,52,97,92,79,29.98,29.83,4,1,8,0.20
2013-4-29,72,60,48,59,54,47,97,81,57,29.95,29.80,8,3,17,0.01
2013-4-30,82,68,56,65,58,52,87,71,48,29.93,29.82,9,6,18,0.00
2013-5-1,82,70,57,61,56,53,91,65,39,30.11,29.93,7,2,13,0.00
2013-5-2,74,60,46,64,53,40,90,79,57,30.13,30.04,9,3,16,0.08
2013-5-3,71,55,42,64,50,39,94,85,66,30.08,29.87,8,3,15,0.05
2013-5-4,71,61,53,57,54,50,92,78,56,30.00,29.89,7,3,18,0.12
2013-5-5,71,60,52,54,51,48,95,75,48,30.00,29.92,7,2,16,0.01
2013-5-6,73,63,53,55,49,42,86,63,46,29.98,29.91,7,3,12,0.00
2013-5-7,78,63,46,56,48,41,87,61,37,30.01,29.93,6,1,12,0.00
2013-5-8,82,66,49,59,51,45,92,61,30,30.01,29.92,3,0,10,0.00
2013-5-9,72,62,56,61,56,50,95,82,61,29.97,29.80,8,2,17,0.30
2013-5-10,64,54,45,62,50,-100,96,91,87,29.96,29.78,7,4,15,0.22
2013-5-11,64,51,44,55,40,-100,96,71,35,30.05,29.86,12,4,25,0.00
2013-5-12,58,47,37,33,30,25,76,53,31,30.13,30.05,10,3,20,0.00
2013-5-13,68,53,34,39,31,25,86,49,21,30.20,30.05,6,2,13,0.00
2013-5-14,90,71,55,63,52,38,66,51,34,30.05,29.70,10,5,24,0.02
2013-5-15,84,75,66,62,56,47,69,53,30,29.82,29.70,8,2,17,0.02
2013-5-16,84,66,55,58,33,-100,87,56,27,29.93,29.78,4,1,8,0.00
2013-5-17,82,67,61,65,56,-100,94,79,43,29.99,29.92,6,1,13,0.42
2013-5-18,79,68,59,67,63,58,98,84,64,30.03,29.91,4,1,9,0.10
2013-5-19,88,75,61,69,65,60,96,74,43,29.94,29.75,8,2,12,0.01
2013-5-20,87,78,72,70,66,60,86,68,45,29.82,29.70,10,5,24,0.01
2013-5-21,81,72,63,69,64,60,95,79,62,29.76,29.66,9,4,25,0.78
2013-5-22,75,68,62,66,62,56,92,79,54,29.75,29.60,7,3,16,0.04
2013-5-23,63,53,41,57,48,36,94,84,71,30.25,29.75,11,5,18,0.01
2013-5-24,64,51,37,44,38,34,92,65,36,30.41,30.24,6,3,12,0.01
2013-5-25,60,51,43,49,41,35,86,68,41,30.39,30.22,4,0,9,0.01
2013-5-26,63,55,44,55,49,42,94,81,61,30.28,30.11,5,2,10,0.39
2013-5-27,72,63,57,68,61,55,97,93,81,30.13,29.83,8,3,16,1.76
2013-5-28,79,71,64,70,66,62,94,85,74,29.88,29.76,11,5,23,0.12
2013-5-29,84,75,66,73,66,61,95,74,54,29.95,29.83,8,4,18,0.20
2013-5-30,84,76,65,71,67,62,93,76,61,29.93,29.81,11,5,22,0.13
2013-5-31,76,70,65,70,66,61,95,88,77,29.91,29.74,10,4,22,1.71
2013-6-1,75,67,61,67,62,-100,96,87,74,29.82,29.65,12,5,26,1.54
2013-6-2,65,59,52,61,55,46,94,87,80,30.04,29.75,7,2,10,0.18
2013-6-3,69,57,44,51,46,42,96,69,45,30.12,30.02,5,1,13,0.00
2013-6-4,74,64,49,54,50,46,92,63,39,30.13,30.05,5,2,12,0.00
2013-6-5,80,68,57,57,54,51,82,62,44,30.05,29.86,5,1,10,0.00
2013-6-6,76,66,57,60,54,47,79,66,55,29.86,29.80,6,3,12,0.00
2013-6-7,74,63,54,60,53,45,90,72,45,29.91,29.84,6,2,11,0.00
2013-6-8,79,65,48,57,51,43,91,63,37,29.98,29.89,4,0,11,0.00
2013-6-9,81,72,62,64,59,54,87,66,41,29.98,29.78,6,2,15,0.00
2013-6-10,82,71,63,66,63,60,96,77,50,29.85,29.72,6,1,12,0.00
2013-6-11,87,75,61,70,64,58,92,70,43,29.92,29.79,6,1,12,0.00
2013-6-12,93,80,69,75,70,67,96,73,47,29.87,29.53,15,2,27,0.47
2013-6-13,76,69,60,70,61,53,97,77,54,30.01,29.61,7,4,15,0.88
2013-6-14,80,67,53,64,58,51,93,74,48,30.10,29.98,4,1,7,0.11
2013-6-15,81,72,63,68,64,60,92,77,57,30.05,29.87,8,1,20,0.01
2013-6-16,83,74,68,70,66,63,90,77,58,29.94,29.86,4,1,17,0.01
2013-6-17,88,76,64,70,63,55,97,68,33,29.92,29.83,2,0,7,0.00
2013-6-18,80,69,59,66,60,53,92,74,55,30.01,29.84,7,3,15,0.00
2013-6-19,82,69,57,61,58,53,91,69,46,30.10,30.00,4,1,9,0.00
2013-6-20,87,74,65,69,62,56,85,69,46,30.13,30.07,5,1,11,0.00
2013-6-22,78,73,69,72,68,65,95,85,75,30.10,29.96,6,2,17,1.06
2013-6-23,83,74,66,73,68,64,96,83,64,30.05,29.95,8,3,17,0.01
2013-6-24,86,73,67,76,68,65,95,86,67,30.07,29.86,7,2,16,0.99
2013-6-25,88,76,67,77,71,65,96,84,67,29.94,29.78,6,3,15,1.07
2013-6-26,82,75,67,76,70,65,95,86,73,29.85,29.68,8,2,18,0.56
2013-6-27,89,78,67,77,70,63,97,79,52,29.77,29.67,7,2,16,0.01
2013-6-28,83,74,65,68,63,59,89,70,47,29.70,29.58,7,3,19,0.03
2013-6-29,76,67,64,66,64,61,95,88,72,29.70,29.56,7,2,14,0.07
2013-6-30,76,67,63,65,61,55,95,81,62,29.91,29.70,8,3,15,0.20
2013-7-1,76,68,61,62,58,50,88,72,58,30.00,29.91,8,4,17,0.02
2013-7-2,68,63,61,62,58,54,95,84,70,30.03,29.96,6,2,11,0.05
2013-7-3,72,66,61,66,62,59,97,88,74,30.07,29.98,4,1,8,0.01
2013-7-4,79,69,58,67,62,57,97,80,62,30.11,30.03,4,1,9,0.01
2013-7-5,82,71,59,72,65,57,98,84,63,30.09,30.00,4,1,9,0.01
2013-7-6,77,72,67,70,68,65,96,88,78,30.05,29.97,3,0,8,0.01
2013-7-7,85,75,66,74,70,65,96,83,63,30.03,29.95,6,2,12,0.00
2013-7-8,87,76,72,76,70,-100,92,84,57,30.03,29.94,6,2,16,0.02
2013-7-9,86,80,75,78,75,72,92,86,73,29.98,29.86,5,1,14,0.01
2013-7-10,85,76,67,77,69,-100,95,84,67,29.97,29.80,7,2,13,0.17
2013-7-11,80,69,58,65,60,55,97,75,43,30.06,29.97,5,2,11,0.01
2013-7-12,84,69,53,66,59,52,97,74,44,30.12,30.04,5,0,7,0.00
2013-7-13,84,73,59,66,63,56,95,73,48,30.13,30.05,7,1,14,0.00
2013-7-14,90,78,64,75,69,62,95,76,55,30.16,30.09,4,1,8,0.00
2013-7-15,92,81,71,77,73,69,95,79,57,30.23,30.16,4,1,9,0.00
2013-7-16,92,81,70,76,72,68,94,77,54,30.29,30.22,5,1,14,0.00
2013-7-17,94,82,70,76,72,68,95,74,49,30.30,30.15,3,0,7,0.00
2013-7-18,94,83,71,78,74,69,95,77,53,30.16,29.96,5,1,10,0.00
2013-7-19,94,84,75,78,74,72,91,74,52,29.97,29.78,6,2,14,0.00
2013-7-20,90,80,71,74,69,-100,93,73,46,29.89,29.77,5,1,12,0.02
2013-7-21,85,75,66,73,70,65,97,84,64,29.93,29.82,4,1,9,0.01
2013-7-22,86,76,69,71,70,67,96,81,60,29.85,29.73,3,1,7,0.07
2013-7-23,85,73,60,70,66,56,96,79,55,29.93,29.70,7,2,16,0.01
2013-7-24,77,64,52,56,52,48,89,67,37,30.03,29.92,6,2,13,0.01
2013-7-25,81,66,49,59,54,48,97,70,41,30.11,30.03,3,1,7,0.00
2013-7-26,72,66,59,66,61,55,94,82,70,30.05,29.88,7,2,14,0.01
2013-7-27,72,63,52,66,55,47,95,77,51,29.93,29.86,8,2,16,0.01
2013-7-28,73,61,49,55,50,46,92,71,44,30.03,29.91,7,2,18,0.00
2013-7-29,72,57,50,56,51,48,94,83,55,30.13,30.03,5,1,9,0.00